• Join FlightAware (Why Join?)
  • Login
  • US Flag 
10:20AM EDT


 

Airport Tracker/Info


-or-


 

Live Flight TrackerFlight Track Log ✈ DLH733 ✈ 16-Jul-2013 ✈ ZSPD / PVG - EDDF / FRA

Flight Track Log - Related Links

Times and Time Zones

All times are in EDT time to prevent confusion due to time zone crossing. See the DLH733 flight status page for this flight to view local times or setup timezone preferences in your user account.

Time Position Orientation Groundspeed Altitude Reporting Facility
EDT Latitude Longitude Course Direction KTS MPH feet Rate Location/Type
12:25PM 31.0540 121.8260 161° South 226 260 2,000  Level FlightAware
12:26PM 31.0280 121.8360 162° South 253 291 2,300 420 Climbing FlightAware
12:26PM 30.9970 121.8420 171° South 257 296 2,400 1,560 Climbing FlightAware
12:26PM 30.9850 121.8080 248° West 271 312 3,500 2,820 Climbing FlightAware
12:27PM 30.9700 121.7520 253° West 273 314 5,000 2,100 Climbing FlightAware
12:28PM 30.9820 121.6870 282° West 290 334 6,500 2,040 Climbing FlightAware
12:28PM 30.9980 121.6500 297° West 292 336 7,400 2,160 Climbing FlightAware
12:29PM 31.0120 121.6160 296° West 293 337 8,300 1,920 Climbing FlightAware
12:29PM 31.0300 121.5700 295° West 302 348 9,200 1,740 Climbing FlightAware
12:29PM 31.0360 121.5570 298° West 305 351 9,500 120 Climbing FlightAware
12:31PM 31.0890 121.4290 296° West 305 351 9,500 1,320 Level FlightAware
12:32PM 31.1230 121.3510 297° West 324 373 12,600 2,220 Climbing FlightAware
12:32PM 31.1560 121.2940 304° West 324 373 12,600 1,860 Level FlightAware
12:33PM 31.2680 121.2560 344° North 347 399 15,700 2,280 Climbing FlightAware
12:34PM 31.3260 121.2120 327° Northwest 370 426 16,100 540 Climbing FlightAware
12:35PM 31.4620 121.1110 328° Northwest 412 474 16,900 540 Climbing FlightAware
12:36PM 31.5260 121.0770 336° Northwest 423 487 17,300 720 Climbing FlightAware
12:37PM 31.6310 121.0200 335° Northwest 423 487 18,100 420 Climbing FlightAware
12:38PM 31.7030 120.9810 335° Northwest 423 487 18,100 1,080 Level FlightAware
12:39PM 31.8130 120.9240 336° Northwest 443 510 19,900 1,080 Climbing FlightAware
12:39PM 31.8910 120.8810 335° Northwest 443 510 19,900  Level FlightAware
12:40PM 31.9670 120.8390 335° Northwest 443 510 19,900  Level FlightAware
12:41PM 32.0240 120.8080 335° Northwest 443 510 19,900  Level FlightAware
12:42PM 32.0970 120.7680 335° Northwest 443 510 19,900  Level FlightAware
12:43PM 32.1900 120.7160 335° Northwest 443 510 19,900 1,140 Level FlightAware
12:45PM 32.3726 120.5505 323° Northwest  Level Estimated
12:46PM 32.4687 120.4631 322° Northwest  Level Estimated
12:47PM 32.5646 120.3755 322° Northwest  Level Estimated
12:47PM 32.2510 119.8450 322° Northwest 483 556 26,700  Level FlightAware
12:48PM 32.6605 120.2878 322° Northwest  Level Estimated
12:48PM 32.2430 119.6990 266° West 485 558 27,300  Level FlightAware
12:49PM 32.2170 119.6160 250° West 489 563 27,700 360 Climbing FlightAware
12:50PM 32.1890 119.5210 251° West 489 563 27,800 60 Climbing FlightAware
12:50PM 32.1640 119.4420 250° West 489 563 27,800  Level FlightAware
12:51PM 32.1170 119.2890 250° West 489 563 27,800  Level FlightAware
12:52PM 32.0930 119.2120 250° West 489 563 27,800 1,740 Level FlightAware
12:53PM 32.0330 119.0490 247° West 490 564 30,100 1,620 Climbing FlightAware
12:53PM 32.0040 118.9650 248° West 490 564 30,100  Level FlightAware
12:54PM 31.9690 118.8620 248° West 490 564 30,100  Level FlightAware
12:55PM 31.9420 118.7840 248° West 490 564 30,100  Level FlightAware
12:56PM 31.9080 118.6830 248° West 490 564 30,100  Level FlightAware
12:56PM 31.8900 118.6320 247° West 490 564 30,100  Level FlightAware
12:57PM 31.8560 118.5310 248° West 490 564 30,100  Level FlightAware
12:58PM 31.8300 118.4550 248° West 490 564 30,100  Level FlightAware
12:58PM 31.8040 118.3800 248° West 490 564 30,100  Level FlightAware
12:59PM 31.7690 118.2790 248° West 490 564 30,100  Level FlightAware
01:00PM 31.7430 118.2030 248° West 490 564 30,100  Level FlightAware
01:00PM 31.7290 117.9700 266° West 485 558 30,100  Level FlightAware
01:01PM 31.7340 117.8650 273° West 485 558 30,100  Level FlightAware
01:01PM 31.7370 117.7840 273° West 485 558 30,100  Level FlightAware
01:02PM 31.7420 117.6740 273° West 485 558 30,100  Level FlightAware
01:03PM 31.7460 117.5940 273° West 485 558 30,100  Level FlightAware
01:04PM 31.7520 117.4570 273° West 485 558 30,100  Level FlightAware
01:04PM 31.7550 117.3770 273° West 485 558 30,100  Level FlightAware
01:05PM 31.7590 117.2960 273° West 485 558 30,100  Level FlightAware
01:06PM 31.7630 117.2130 273° West 485 558 30,100  Level FlightAware
01:06PM 31.7680 117.1030 273° West 485 558 30,100  Level FlightAware
01:07PM 31.7710 117.0200 272° West 485 558 30,100  Level FlightAware
01:08PM 31.7750 116.9400 273° West 485 558 30,100  Level FlightAware
01:08PM 31.7800 116.8320 273° West 485 558 30,100  Level FlightAware
01:09PM 31.7840 116.7250 273° West 485 558 30,100  Level FlightAware
01:10PM 31.7880 116.6440 273° West 485 558 30,100  Level FlightAware
01:13PM 32.0422 116.4017 321° Northwest  Level Estimated
01:14PM 32.1362 116.3117 321° Northwest  Level Estimated
01:15PM 32.2302 116.2214 321° Northwest  Level Estimated
01:16PM 32.3241 116.1310 321° Northwest  Level Estimated
01:17PM 32.4179 116.0404 321° Northwest  Level Estimated
01:18PM 32.5116 115.9496 321° Northwest  Level Estimated
01:19PM 32.6053 115.8586 321° Northwest  Level Estimated
01:20PM 32.6990 115.7674 321° Northwest  Level Estimated
01:21PM 32.7925 115.6760 321° Northwest  Level Estimated
01:22PM 32.8860 115.5844 321° Northwest  Level Estimated
01:23PM 32.9795 115.4927 321° Northwest  Level Estimated
01:24PM 33.0728 115.4007 320° Northwest  Level Estimated
01:25PM 33.1661 115.3085 320° Northwest  Level Estimated
01:26PM 33.2594 115.2162 320° Northwest  Level Estimated
01:27PM 33.3525 115.1236 320° Northwest  Level Estimated
01:28PM 33.4456 115.0309 320° Northwest  Level Estimated
01:29PM 33.5386 114.9379 320° Northwest  Level Estimated
01:30PM 33.6316 114.8448 320° Northwest  Level Estimated
01:31PM 33.7245 114.7514 320° Northwest  Level Estimated
01:32PM 33.8173 114.6579 320° Northwest  Level Estimated
01:33PM 33.9100 114.5641 320° Northwest  Level Estimated
01:34PM 34.0027 114.4702 320° Northwest  Level Estimated
01:35PM 34.0953 114.3760 320° Northwest  Level Estimated
01:36PM 34.1878 114.2816 320° Northwest  Level Estimated
01:37PM 34.2803 114.1870 320° Northwest  Level Estimated
01:38PM 34.3727 114.0922 320° Northwest  Level Estimated
01:39PM 34.4650 113.9972 320° Northwest  Level Estimated
01:40PM 34.5572 113.9020 320° Northwest  Level Estimated
01:41PM 34.6494 113.8066 320° Northwest  Level Estimated
01:42PM 34.7415 113.7110 320° Northwest  Level Estimated
01:43PM 34.8335 113.6151 319° Northwest  Level Estimated
01:44PM 34.9254 113.5191 319° Northwest  Level Estimated
01:45PM 35.0173 113.4228 319° Northwest  Level Estimated
01:46PM 35.1091 113.3263 319° Northwest  Level Estimated
01:47PM 35.2008 113.2296 319° Northwest  Level Estimated
01:48PM 35.2924 113.1327 319° Northwest  Level Estimated
01:49PM 35.3840 113.0355 319° Northwest  Level Estimated
01:50PM 35.4755 112.9382 319° Northwest  Level Estimated
01:51PM 35.5669 112.8406 319° Northwest  Level Estimated
01:52PM 35.6582 112.7428 319° Northwest  Level Estimated
01:53PM 35.7494 112.6447 319° Northwest  Level Estimated
01:54PM 35.8406 112.5465 319° Northwest  Level Estimated
01:55PM 35.9317 112.4480 319° Northwest  Level Estimated
01:56PM 36.0227 112.3493 319° Northwest  Level Estimated
01:57PM 36.1136 112.2503 319° Northwest  Level Estimated
01:58PM 36.2044 112.1512 319° Northwest  Level Estimated
01:59PM 36.2952 112.0518 319° Northwest  Level Estimated
02:00PM 36.3858 111.9521 319° Northwest  Level Estimated
02:01PM 36.4764 111.8523 318° Northwest  Level Estimated
02:02PM 36.5670 111.7522 318° Northwest  Level Estimated
02:03PM 36.6574 111.6518 318° Northwest  Level Estimated
02:04PM 36.7477 111.5513 318° Northwest  Level Estimated
02:05PM 36.8380 111.4504 318° Northwest  Level Estimated
02:06PM 36.9281 111.3494 318° Northwest  Level Estimated
02:07PM 37.0182 111.2481 318° Northwest  Level Estimated
02:08PM 37.1082 111.1466 318° Northwest  Level Estimated
02:09PM 37.1981 111.0448 318° Northwest  Level Estimated
02:10PM 37.2879 110.9428 318° Northwest  Level Estimated
02:11PM 37.3777 110.8406 318° Northwest  Level Estimated
02:12PM 37.4673 110.7381 318° Northwest  Level Estimated
02:13PM 37.5569 110.6353 318° Northwest  Level Estimated
02:14PM 37.6464 110.5323 318° Northwest  Level Estimated
02:15PM 37.7357 110.4291 318° Northwest  Level Estimated
02:16PM 37.8250 110.3256 318° Northwest  Level Estimated
02:17PM 37.9142 110.2219 317° Northwest  Level Estimated
02:18PM 38.0033 110.1179 317° Northwest  Level Estimated
02:19PM 38.0923 110.0136 317° Northwest  Level Estimated
02:20PM 38.1813 109.9091 317° Northwest  Level Estimated
02:21PM 38.2701 109.8044 317° Northwest  Level Estimated
02:22PM 38.3588 109.6994 317° Northwest  Level Estimated
02:23PM 38.4475 109.5941 317° Northwest  Level Estimated
02:24PM 38.5360 109.4886 317° Northwest  Level Estimated
02:25PM 38.6245 109.3828 317° Northwest  Level Estimated
02:26PM 38.7128 109.2768 317° Northwest  Level Estimated
02:27PM 38.8011 109.1705 317° Northwest  Level Estimated
02:28PM 38.8893 109.0639 317° Northwest  Level Estimated
02:29PM 38.9773 108.9570 317° Northwest  Level Estimated
02:30PM 39.0653 108.8500 317° Northwest  Level Estimated
02:31PM 39.1532 108.7426 317° Northwest  Level Estimated
02:32PM 39.2409 108.6349 316° Northwest  Level Estimated
02:33PM 39.3286 108.5270 316° Northwest  Level Estimated
02:34PM 39.4162 108.4189 316° Northwest  Level Estimated
02:35PM 39.5036 108.3104 316° Northwest  Level Estimated
02:36PM 39.5910 108.2017 316° Northwest  Level Estimated
02:37PM 39.6783 108.0927 316° Northwest  Level Estimated
02:38PM 39.7654 107.9834 316° Northwest  Level Estimated
02:39PM 39.8525 107.8739 316° Northwest  Level Estimated
02:40PM 39.9395 107.7640 316° Northwest  Level Estimated
02:41PM 40.0263 107.6539 316° Northwest  Level Estimated
02:42PM 40.1131 107.5435 316° Northwest  Level Estimated
02:43PM 40.1997 107.4329 316° Northwest  Level Estimated
02:44PM 40.2863 107.3219 316° Northwest  Level Estimated
02:45PM 40.3727 107.2107 316° Northwest  Level Estimated
02:46PM 40.4590 107.0992 316° Northwest  Level Estimated
02:47PM 40.5453 106.9873 315° West  Level Estimated
02:48PM 40.6314 106.8752 315° West  Level Estimated
02:49PM 40.7174 106.7628 315° West  Level Estimated
02:50PM 40.8033 106.6502 315° West  Level Estimated
02:51PM 40.8891 106.5372 315° West  Level Estimated
02:52PM 40.9748 106.4239 315° West  Level Estimated
02:53PM 41.0603 106.3104 315° West  Level Estimated
02:54PM 41.1458 106.1965 315° West  Level Estimated
02:55PM 41.2311 106.0824 315° West  Level Estimated
02:56PM 41.3163 105.9679 315° West  Level Estimated
02:57PM 41.4015 105.8532 315° West  Level Estimated
02:58PM 41.4865 105.7381 315° West  Level Estimated
02:59PM 41.5714 105.6228 315° West  Level Estimated
03:00PM 41.6561 105.5071 314° West  Level Estimated
03:01PM 41.7408 105.3912 314° West  Level Estimated
03:02PM 41.8253 105.2749 314° West  Level Estimated
03:03PM 41.9097 105.1583 314° West  Level Estimated
03:04PM 41.9940 105.0415 314° West  Level Estimated
03:05PM 42.0782 104.9243 314° West  Level Estimated
03:06PM 42.1623 104.8068 314° West  Level Estimated
03:07PM 42.2462 104.6890 314° West  Level Estimated
03:08PM 42.3300 104.5708 314° West  Level Estimated
03:09PM 42.4137 104.4524 314° West  Level Estimated
03:10PM 42.4973 104.3336 314° West  Level Estimated
03:11PM 42.5808 104.2145 314° West  Level Estimated
03:12PM 42.6641 104.0952 314° West  Level Estimated
03:13PM 42.7473 103.9754 313° West  Level Estimated
03:14PM 42.8304 103.8554 313° West  Level Estimated
03:15PM 42.9133 103.7350 313° West  Level Estimated
03:16PM 42.9962 103.6144 313° West  Level Estimated
03:17PM 43.0789 103.4934 313° West  Level Estimated
03:18PM 43.1614 103.3720 313° West  Level Estimated
03:19PM 43.2439 103.2504 313° West  Level Estimated
03:20PM 43.3262 103.1284 313° West  Level Estimated
03:21PM 43.4084 103.0061 313° West  Level Estimated
03:22PM 43.4905 102.8834 313° West  Level Estimated
03:23PM 43.5724 102.7604 313° West  Level Estimated
03:24PM 43.6542 102.6371 313° West  Level Estimated
03:25PM 43.7358 102.5134 312° West  Level Estimated
03:26PM 43.8174 102.3894 312° West  Level Estimated
03:27PM 43.8988 102.2651 312° West  Level Estimated
03:28PM 43.9800 102.1404 312° West  Level Estimated
03:29PM 44.0611 102.0154 312° West  Level Estimated
03:30PM 44.1421 101.8900 312° West  Level Estimated
03:31PM 44.2230 101.7643 312° West  Level Estimated
03:32PM 44.3037 101.6383 312° West  Level Estimated
03:33PM 44.3842 101.5119 312° West  Level Estimated
03:34PM 44.4647 101.3851 312° West  Level Estimated
03:35PM 44.5450 101.2580 312° West  Level Estimated
03:36PM 44.6251 101.1306 311° West  Level Estimated
03:37PM 44.7051 101.0028 311° West  Level Estimated
03:38PM 44.7850 100.8746 311° West  Level Estimated
03:39PM 44.8647 100.7461 311° West  Level Estimated
03:40PM 44.9443 100.6172 311° West  Level Estimated
03:41PM 45.0237 100.4880 311° West  Level Estimated
03:42PM 45.1030 100.3584 311° West  Level Estimated
03:43PM 45.1821 100.2285 311° West  Level Estimated
03:44PM 45.2611 100.0982 311° West  Level Estimated
03:45PM 45.3400 99.9675 311° West  Level Estimated
03:46PM 45.4186 99.8365 311° West  Level Estimated
03:47PM 45.4972 99.7051 310° West  Level Estimated
03:48PM 45.5756 99.5734 310° West  Level Estimated
03:49PM 45.6538 99.4412 310° West  Level Estimated
03:50PM 45.7319 99.3087 310° West  Level Estimated
03:51PM 45.8098 99.1759 310° West  Level Estimated
03:52PM 45.8876 99.0426 310° West  Level Estimated
03:53PM 45.9652 98.9090 310° West  Level Estimated
03:54PM 46.0427 98.7750 310° West  Level Estimated
03:55PM 46.1200 98.6407 310° West  Level Estimated
03:56PM 46.1971 98.5059 310° West  Level Estimated
03:57PM 46.2741 98.3708 310° West  Level Estimated
03:58PM 46.3510 98.2353 309° West  Level Estimated
03:59PM 46.4276 98.0994 309° West  Level Estimated
04:00PM 46.5041 97.9632 309° West  Level Estimated
04:01PM 46.5805 97.8265 309° West  Level Estimated
04:02PM 46.6567 97.6895 309° West  Level Estimated
04:03PM 46.7327 97.5521 309° West  Level Estimated
04:04PM 46.8086 97.4143 309° West  Level Estimated
04:05PM 46.8842 97.2761 309° West  Level Estimated
04:06PM 46.9598 97.1375 309° West  Level Estimated
04:07PM 47.0351 96.9985 309° West  Level Estimated
04:08PM 47.1103 96.8592 308° West  Level Estimated
04:09PM 47.1853 96.7194 308° West  Level Estimated
04:10PM 47.2602 96.5792 308° West  Level Estimated
04:11PM 47.3348 96.4387 308° West  Level Estimated
04:12PM 47.4093 96.2977 308° West  Level Estimated
04:13PM 47.4837 96.1564 308° West  Level Estimated
04:14PM 47.5578 96.0146 308° West  Level Estimated
04:15PM 47.6318 95.8725 308° West  Level Estimated
04:16PM 47.7056 95.7299 308° West  Level Estimated
04:17PM 47.7792 95.5870 308° West  Level Estimated
04:18PM 47.8527 95.4436 307° West  Level Estimated
04:19PM 47.9260 95.2999 307° West  Level Estimated
04:20PM 47.9991 95.1557 307° West  Level Estimated
04:21PM 48.0720 95.0111 307° West  Level Estimated
04:22PM 48.1447 94.8661 307° West  Level Estimated
04:23PM 48.2172 94.7207 307° West  Level Estimated
04:24PM 48.2896 94.5749 307° West  Level Estimated
04:25PM 48.3618 94.4287 307° West  Level Estimated
04:26PM 48.4338 94.2820 307° West  Level Estimated
04:27PM 48.5056 94.1350 306° West  Level Estimated
04:28PM 48.5772 93.9875 306° West  Level Estimated
04:29PM 48.6486 93.8396 306° West  Level Estimated
04:30PM 48.7198 93.6913 306° West  Level Estimated
04:31PM 48.7909 93.5425 306° West  Level Estimated
04:32PM 48.8617 93.3934 306° West  Level Estimated
04:33PM 48.9324 93.2438 306° West  Level Estimated
04:34PM 49.0029 93.0938 306° West  Level Estimated
04:35PM 49.0731 92.9434 306° West  Level Estimated
04:36PM 49.1432 92.7925 305° West  Level Estimated
04:37PM 49.2131 92.6413 305° West  Level Estimated
04:38PM 49.2828 92.4896 305° West  Level Estimated
04:39PM 49.3523 92.3374 305° West  Level Estimated
04:40PM 49.4215 92.1849 305° West  Level Estimated
04:41PM 49.4906 92.0319 305° West  Level Estimated
04:42PM 49.5595 91.8785 305° West  Level Estimated
04:43PM 49.6282 91.7246 305° West  Level Estimated
04:44PM 49.6966 91.5703 304° West  Level Estimated
04:45PM 49.7649 91.4156 304° West  Level Estimated
04:46PM 49.8330 91.2604 304° West  Level Estimated
04:47PM 49.9008 91.1048 304° West  Level Estimated
04:48PM 49.9684 90.9488 304° West  Level Estimated
04:49PM 50.0359 90.7923 304° West  Level Estimated
04:50PM 50.1031 90.6354 304° West  Level Estimated
04:51PM 50.1701 90.4780 304° West  Level Estimated
04:52PM 50.2369 90.3202 304° West  Level Estimated
04:53PM 50.3035 90.1620 303° West  Level Estimated
04:54PM 50.3699 90.0033 303° West  Level Estimated
04:55PM 50.4360 89.8442 303° West  Level Estimated
04:56PM 50.5019 89.6846 303° West  Level Estimated
04:57PM 50.5676 89.5246 303° West  Level Estimated
04:58PM 50.6331 89.3642 303° West  Level Estimated
04:59PM 50.6984 89.2032 303° West  Level Estimated
05:00PM 50.7635 89.0419 303° West  Level Estimated
05:01PM 50.8283 88.8801 302° West  Level Estimated
05:02PM 50.8929 88.7178 302° West  Level Estimated
05:03PM 50.9573 88.5551 302° West  Level Estimated
05:04PM 51.0214 88.3920 302° West  Level Estimated
05:05PM 51.0853 88.2284 302° West  Level Estimated
05:06PM 51.1490 88.0643 302° West  Level Estimated
05:06PM 53.0820 89.5380 302° West 449 517 36,000  Level FlightAware
05:07PM 51.2125 87.8998 302° West  Level Estimated
05:07PM 53.1180 89.4150 296° West 451 519 36,000  Level FlightAware
05:07PM 53.1540 89.2880 295° West 452 520 36,000  Level FlightAware
05:08PM 53.1900 89.1640 296° West 452 520 36,000  Level FlightAware
05:09PM 53.2260 89.0370 295° West 453 521 36,000  Level FlightAware
05:10PM 53.2750 88.8650 296° West 454 522 36,000  Level FlightAware
05:10PM 53.3080 88.7470 295° West 453 521 36,000  Level FlightAware
05:11PM 53.3580 88.5670 295° West 453 521 36,000  Level FlightAware
05:12PM 53.4100 88.3790 295° West 454 522 36,000  Level FlightAware
05:13PM 53.4460 88.2490 295° West 455 524 36,000  Level FlightAware
05:14PM 53.4780 88.1300 294° West 455 524 36,000  Level FlightAware
05:14PM 53.5120 88.0080 295° West 454 522 36,000  Level FlightAware
05:15PM 53.5500 87.8660 294° West 454 522 36,000  Level FlightAware
05:16PM 53.5850 87.7370 295° West 457 526 36,000  Level FlightAware
05:17PM 53.6370 87.5420 294° West 460 529 36,000  Level FlightAware
05:17PM 53.6710 87.4130 294° West 461 531 36,000  Level FlightAware
05:18PM 53.7060 87.2800 294° West 460 529 36,000  Level FlightAware
05:19PM 53.7480 87.1220 294° West 463 533 36,000  Level FlightAware
05:19PM 53.7830 86.9860 294° West 466 536 36,000  Level FlightAware
05:20PM 53.8220 86.8480 296° West 466 536 36,000  Level FlightAware
05:21PM 53.8640 86.7230 300° West 466 536 36,000  Level FlightAware
05:21PM 53.9020 86.6130 300° West 466 536 36,000  Level FlightAware
05:22PM 53.9560 86.4530 300° West 468 539 36,000  Level FlightAware
05:23PM 53.9930 86.3430 300° West 469 540 36,000  Level FlightAware
05:24PM 54.0390 86.2070 300° West 470 541 36,000  Level FlightAware
05:24PM 54.0900 86.0540 300° West 472 543 36,000  Level FlightAware
05:25PM 54.1280 85.9420 300° West 472 543 36,000  Level FlightAware
05:26PM 54.1810 85.7800 299° West 474 545 36,000  Level FlightAware
05:26PM 54.2230 85.6530 300° West 476 548 36,000  Level FlightAware
05:27PM 54.2660 85.5200 299° West 476 548 36,000  Level FlightAware
05:28PM 54.3080 85.3920 299° West 474 545 36,000  Level FlightAware
05:28PM 54.3510 85.2580 299° West 476 548 36,000  Level FlightAware
05:29PM 54.3990 85.1090 299° West 477 549 36,000  Level FlightAware
05:32PM 54.5322 84.6646 297° West  Level Estimated
05:33PM 54.5872 84.4786 297° West  Level Estimated
05:33PM 54.6060 84.4550 297° West 479 551 36,000  Level FlightAware
05:34PM 54.6740 84.2390 299° West 479 551 36,000  Level FlightAware
05:35PM 54.7420 84.0120 297° West 480 552 36,000  Level FlightAware
05:36PM 54.7900 83.8590 299° West 483 556 36,000  Level FlightAware
05:36PM 54.8470 83.6720 298° West 485 558 36,000  Level FlightAware
05:37PM 54.8950 83.5130 298° West 485 558 36,000  Level FlightAware
05:38PM 54.9290 83.3990 297° West 485 558 36,000  Level FlightAware
05:39PM 54.9940 83.1790 297° West 488 562 36,000  Level FlightAware
05:39PM 55.0300 83.0580 297° West 488 562 36,000  Level FlightAware
05:40PM 55.0720 82.9180 298° West 487 560 36,000  Level FlightAware
05:41PM 55.1280 82.7740 304° West 487 560 36,000  Level FlightAware
05:41PM 55.1740 82.6630 306° West 488 562 36,000  Level FlightAware
05:42PM 55.2280 82.5360 307° West 489 563 36,000  Level FlightAware
05:43PM 55.2840 82.3900 304° West 491 565 36,000  Level FlightAware
05:43PM 55.3260 82.2480 298° West 492 566 36,000  Level FlightAware
05:44PM 55.3710 82.0880 296° West 492 566 36,000  Level FlightAware
05:45PM 55.4110 81.9450 296° West 492 566 36,000  Level FlightAware
05:45PM 55.4560 81.7830 296° West 494 568 36,000  Level FlightAware
05:46PM 55.4860 81.6760 296° West 494 568 36,000  Level FlightAware
05:47PM 55.5300 81.5150 296° West 495 570 36,000  Level FlightAware
05:47PM 55.5700 81.3690 296° West 495 570 36,000  Level FlightAware
05:48PM 55.6050 81.2410 296° West 496 571 36,000  Level FlightAware
05:49PM 55.6440 81.0960 296° West 497 572 36,000  Level FlightAware
05:49PM 55.6880 80.9320 296° West 498 573 36,000  Level FlightAware
05:50PM 55.7280 80.7830 296° West 499 574 36,000  Level FlightAware
05:51PM 55.7710 80.6180 295° West 499 574 36,000  Level FlightAware
05:52PM 55.8150 80.4520 295° West 501 577 36,000  Level FlightAware
05:52PM 55.8540 80.3030 295° West 502 578 36,000  Level FlightAware
05:53PM 55.8930 80.1540 295° West 503 579 36,000  Level FlightAware
05:53PM 55.9270 80.0220 295° West 503 579 36,000  Level FlightAware
05:54PM 55.9700 79.8540 295° West 504 580 36,000  Level FlightAware
05:55PM 56.0040 79.7210 295° West 503 579 36,000  Level FlightAware
05:55PM 56.0410 79.5710 294° West 503 579 36,000  Level FlightAware
05:56PM 56.0800 79.4190 295° West 505 581 36,000  Level FlightAware
05:57PM 56.1210 79.2530 294° West 506 582 36,000  Level FlightAware
05:58PM 56.1580 79.1050 294° West 508 585 36,000  Level FlightAware
05:58PM 56.2020 78.9240 294° West 509 586 36,000  Level FlightAware
05:59PM 56.2330 78.7950 293° West 510 587 36,000  Level FlightAware
06:00PM 56.2810 78.5970 294° West 512 589 36,000  Level FlightAware
06:00PM 56.3090 78.4790 293° West 512 589 36,000  Level FlightAware
06:01PM 56.3510 78.3040 293° West 512 589 36,000  Level FlightAware
06:02PM 56.3870 78.1460 292° West 515 593 36,000  Level FlightAware
06:02PM 56.4180 78.0080 292° West 515 593 36,000  Level FlightAware
06:03PM 56.4540 77.8490 292° West 516 594 36,000  Level FlightAware
06:04PM 56.4940 77.6690 292° West 518 596 36,000  Level FlightAware
06:04PM 56.5290 77.5090 292° West 520 598 36,000  Level FlightAware
06:05PM 56.5780 77.2870 292° West 521 600 36,000  Level FlightAware
06:06PM 56.6170 77.1020 291° West 522 601 36,000  Level FlightAware
06:07PM 56.6510 76.9380 291° West 523 602 36,000  Level FlightAware
06:07PM 56.6930 76.7390 291° West 523 602 36,000  Level FlightAware
06:08PM 56.7270 76.5750 291° West 523 602 36,000  Level FlightAware
06:09PM 56.7600 76.4130 290° West 523 602 36,000  Level FlightAware
06:09PM 56.7940 76.2480 291° West 523 602 36,000  Level FlightAware
06:10PM 56.8440 76.0000 290° West 523 602 36,000  Level FlightAware
06:11PM 56.8520 75.9580 289° West 523 602 36,000  Level FlightAware
06:12PM 56.9170 75.6270 290° West 521 600 36,000  Level FlightAware
06:13PM 56.9500 75.4610 290° West 521 600 36,000  Level FlightAware
06:13PM 56.9780 75.3180 290° West 522 601 36,000  Level FlightAware
06:14PM 57.0140 75.1300 289° West 524 603 36,000  Level FlightAware
06:16PM 57.0770 74.7960 289° West 525 604 36,000  Level FlightAware
06:17PM 57.1153 74.5818 289° West  Level Estimated
06:17PM 57.1480 74.4170 289° West 524 603 36,000  Level FlightAware
06:18PM 57.1900 74.1870 289° West 525 604 36,000  Level FlightAware
06:18PM 57.2250 73.9960 289° West 525 604 36,000  Level FlightAware
06:19PM 57.2550 73.8260 288° West 525 604 36,000  Level FlightAware
06:20PM 57.2890 73.6350 288° West 525 604 36,000  Level FlightAware
06:20PM 57.3190 73.4660 288° West 525 604 36,000  Level FlightAware
06:21PM 57.3490 73.2950 288° West 524 603 36,000  Level FlightAware
06:22PM 57.3830 73.1030 288° West 526 605 36,000  Level FlightAware
06:23PM 57.4120 72.9340 288° West 527 606 36,000  Level FlightAware
06:23PM 57.4450 72.7400 288° West 525 604 36,000  Level FlightAware
06:24PM 57.4740 72.5690 288° West 525 604 36,000  Level FlightAware
06:25PM 57.5020 72.3990 287° West 524 603 36,000  Level FlightAware
06:25PM 57.5340 72.2070 287° West 524 603 36,000  Level FlightAware
06:26PM 57.5590 72.0550 287° West 525 604 36,000  Level FlightAware
06:27PM 57.5840 71.9030 287° West 524 603 36,000  Level FlightAware
06:27PM 57.6120 71.7310 287° West 522 601 36,000  Level FlightAware
06:28PM 57.6460 71.5170 287° West 523 602 36,000  Level FlightAware
06:29PM 57.6730 71.3440 286° West 525 604 36,000  Level FlightAware
06:29PM 57.7000 71.1700 286° West 526 605 36,000  Level FlightAware
06:30PM 57.7320 70.9770 287° West 525 604 36,000  Level FlightAware
06:31PM 57.7600 70.8030 287° West 527 606 36,000  Level FlightAware
06:31PM 57.7850 70.6510 287° West 527 606 36,000  Level FlightAware
06:32PM 57.8160 70.4570 287° West 526 605 36,000  Level FlightAware
06:33PM 57.8440 70.2830 287° West 519 597 36,000  Level FlightAware
06:33PM 57.8680 70.1320 287° West 518 596 36,000  Level FlightAware
06:34PM 57.8970 69.9410 286° West 518 596 36,000  Level FlightAware
06:35PM 57.9240 69.7690 287° West 523 602 36,000  Level FlightAware
06:36PM 57.9540 69.5710 286° West 524 603 36,000  Level FlightAware
06:36PM 57.9770 69.4170 286° West 523 602 36,000  Level FlightAware
06:37PM 58.0060 69.2210 286° West 522 601 36,000  Level FlightAware
06:38PM 58.0320 69.0470 286° West 519 597 36,000  Level FlightAware
06:38PM 58.0580 68.8730 286° West 519 597 36,000  Level FlightAware
06:39PM 58.0820 68.7000 285° West 516 594 36,000  Level FlightAware
06:40PM 58.1070 68.5260 285° West 513 590 36,000  Level FlightAware
06:40PM 58.1280 68.3770 285° West 512 589 36,000  Level FlightAware
06:41PM 58.1660 68.1880 291° West 510 587 36,000  Level FlightAware
06:42PM 58.2110 68.0090 296° West 510 587 36,000  Level FlightAware
06:42PM 58.2410 67.8880 295° West 508 585 36,000  Level FlightAware
06:43PM 58.2870 67.7080 296° West 504 580 36,000  Level FlightAware
06:44PM 58.3260 67.5490 295° West 502 578 36,000  Level FlightAware
06:44PM 58.3700 67.3700 295° West 501 577 36,000  Level FlightAware
06:45PM 58.4190 67.1710 295° West 503 579 36,000  Level FlightAware
06:46PM 58.4620 66.9950 295° West 501 577 36,000  Level FlightAware
06:46PM 58.4890 66.8830 295° West 501 577 36,000  Level FlightAware
06:47PM 58.5330 66.7000 295° West 499 574 36,000  Level FlightAware
06:48PM 58.5750 66.5260 295° West 493 567 36,000  Level FlightAware
06:49PM 58.6120 66.3700 295° West 487 560 36,000  Level FlightAware
06:49PM 58.6500 66.2080 294° West 485 558 36,000  Level FlightAware
06:50PM 58.6910 66.0320 294° West 486 559 36,000  Level FlightAware
06:51PM 58.7300 65.8590 294° West 488 562 36,000  Level FlightAware
06:51PM 58.7670 65.7000 294° West 488 562 36,000  Level FlightAware
06:52PM 58.8030 65.5440 294° West 489 563 36,000  Level FlightAware
06:53PM 58.8370 65.3900 293° West 489 563 36,000  Level FlightAware
06:53PM 58.8800 65.2000 294° West 487 560 36,000  Level FlightAware
06:54PM 58.9120 65.0570 293° West 490 564 36,000  Level FlightAware
06:55PM 58.9560 64.8570 293° West 495 570 36,000  Level FlightAware
06:56PM 58.9920 64.6920 293° West 492 566 36,000  Level FlightAware
06:56PM 59.0260 64.5350 293° West 491 565 36,000  Level FlightAware
06:57PM 59.0690 64.3340 293° West 494 568 36,000  Level FlightAware
06:58PM 59.1000 64.1930 293° West 494 568 36,000  Level FlightAware
06:58PM 59.1420 63.9940 292° West 495 570 36,000  Level FlightAware
06:59PM 59.1730 63.8460 292° West 493 567 36,000  Level FlightAware
07:00PM 59.2040 63.6960 292° West 490 564 36,000  Level FlightAware
07:00PM 59.2380 63.5290 292° West 483 556 36,000  Level FlightAware
07:01PM 59.2780 63.3310 292° West 486 559 36,000  Level FlightAware
07:02PM 59.3050 63.2010 292° West 489 563 36,000  Level FlightAware
07:02PM 59.3420 63.0130 291° West 491 565 36,000  Level FlightAware
07:03PM 59.3770 62.8340 291° West 494 568 36,000  Level FlightAware
07:04PM 59.4010 62.6390 284° West 499 574 36,000  Level FlightAware
07:05PM 59.4160 62.4640 280° West 497 572 36,000  Level FlightAware
07:05PM 59.4270 62.3330 279° West 495 570 36,000  Level FlightAware
07:06PM 59.4410 62.1530 279° West 494 568 36,000  Level FlightAware
07:06PM 59.4560 61.9740 279° West 492 566 36,000  Level FlightAware
07:07PM 59.4690 61.8000 278° West 493 567 36,000  Level FlightAware
07:08PM 59.4790 61.6640 278° West 493 567 36,000  Level FlightAware
07:08PM 59.4890 61.5310 278° West 490 564 36,000  Level FlightAware
07:09PM 59.5060 61.3140 279° West 486 559 36,000  Level FlightAware
07:10PM 59.5190 61.1290 278° West 486 559 36,000  Level FlightAware
07:10PM 59.5300 60.9720 278° West 486 559 36,000  Level FlightAware
07:11PM 59.5430 60.7820 278° West 488 562 36,000  Level FlightAware
07:12PM 59.5620 60.6090 282° West 491 565 36,000  Level FlightAware
07:12PM 59.5790 60.5030 288° West 490 564 36,000  Level FlightAware
07:13PM 59.6200 60.3270 295° West 489 563 36,000  Level FlightAware
07:13PM 59.6610 60.1680 297° West 485 558 36,000  Level FlightAware
07:14PM 59.7050 59.9980 297° West 484 557 36,000  Level FlightAware
07:15PM 59.7420 59.8530 297° West 484 557 36,000  Level FlightAware
07:16PM 59.7880 59.6750 297° West 482 555 36,000  Level FlightAware
07:17PM 59.8520 59.4190 297° West 483 556 36,000  Level FlightAware
07:17PM 59.8890 59.2750 297° West 483 556 36,000  Level FlightAware
07:18PM 59.9380 59.0770 296° West 483 556 36,000  Level FlightAware
07:19PM 59.9670 58.9570 296° West 483 556 36,000  Level FlightAware
07:19PM 60.0120 58.7750 296° West 480 552 36,000  Level FlightAware
07:20PM 60.0490 58.6170 295° West 476 548 36,000  Level FlightAware
07:21PM 60.0730 58.4540 287° West 473 544 36,000  Level FlightAware
07:21PM 60.0820 58.2760 276° West 477 549 36,000  Level FlightAware
07:22PM 60.0760 58.0760 267° West 477 549 36,000  Level FlightAware
07:23PM 60.0700 57.8950 266° West 480 552 36,000  Level FlightAware
07:23PM 60.0650 57.7450 266° West 479 551 36,000  Level FlightAware
07:24PM 60.0580 57.5470 266° West 476 548 36,000  Level FlightAware
07:25PM 60.0510 57.3580 266° West 474 545 36,000  Level FlightAware
07:25PM 60.0440 57.1720 266° West 470 541 36,000  Level FlightAware
07:26PM 60.0380 57.0110 266° West 469 540 36,000  Level FlightAware
07:27PM 60.0300 56.8060 266° West 469 540 36,000  Level FlightAware
07:28PM 60.0230 56.6290 266° West 470 541 36,000  Level FlightAware
07:28PM 60.0150 56.4500 265° West 472 543 36,000  Level FlightAware
07:29PM 60.0070 56.2640 265° West 471 542 36,000  Level FlightAware
07:30PM 59.9980 56.0800 264° West 474 545 36,000  Level FlightAware
07:31PM 59.9860 55.8470 264° West 474 545 36,000  Level FlightAware
07:31PM 59.9770 55.6440 265° West 474 545 36,000  Level FlightAware
07:33PM 59.9620 55.3430 264° West 474 545 36,000  Level FlightAware
07:33PM 59.9540 55.1910 264° West 474 545 36,000  Level FlightAware
07:34PM 59.9460 55.0540 263° West 474 545 36,000  Level FlightAware
07:35PM 59.9370 54.8760 264° West 474 545 36,000  Level FlightAware
07:35PM 59.9300 54.7430 264° West 474 545 36,000  Level FlightAware
07:36PM 59.9130 54.4650 263° West 469 540 36,000  Level FlightAware
07:37PM 59.8990 54.2220 264° West 467 537 36,000  Level FlightAware
07:38PM 59.8890 54.0630 263° West 466 536 36,000  Level FlightAware
07:38PM 59.8780 53.8860 263° West 467 537 36,000  Level FlightAware
07:39PM 59.8690 53.7440 263° West 466 536 36,000  Level FlightAware
07:40PM 59.8540 53.5250 262° West 465 535 36,000  Level FlightAware
07:40PM 59.8450 53.3860 263° West 467 537 36,000  Level FlightAware
07:41PM 59.8320 53.1880 263° West 469 540 36,000  Level FlightAware
07:42PM 59.8120 52.9170 262° West 466 536 36,000  Level FlightAware
07:43PM 59.8010 52.7640 262° West 463 533 36,000  Level FlightAware
07:43PM 59.7940 52.6540 263° West 464 534 36,000  Level FlightAware
07:44PM 59.7760 52.4200 261° West 467 537 36,000  Level FlightAware
07:45PM 59.7520 52.0930 262° West 472 543 36,000  Level FlightAware
07:46PM 59.7610 51.8710 275° West 478 550 36,000  Level FlightAware
07:47PM 59.7700 51.6580 275° West 472 543 36,000  Level FlightAware
07:48PM 59.7770 51.4950 275° West 468 539 36,000  Level FlightAware
07:48PM 59.7860 51.2800 275° West 471 542 36,000  Level FlightAware
07:49PM 59.7930 51.1080 275° West 474 545 36,000  Level FlightAware
07:50PM 59.8010 50.9080 275° West 475 547 36,000  Level FlightAware
07:51PM 59.8090 50.7100 275° West 473 544 36,000  Level FlightAware
07:51PM 59.8140 50.5680 274° West 474 545 36,000  Level FlightAware
07:52PM 59.8210 50.3670 274° West 477 549 36,000  Level FlightAware
07:53PM 59.8270 50.1830 274° West 476 548 36,000  Level FlightAware
07:54PM 59.8350 49.9320 274° West 477 549 36,000  Level FlightAware
07:54PM 59.8400 49.7740 274° West 477 549 36,000  Level FlightAware
07:55PM 59.8430 49.6400 273° West 477 549 36,000  Level FlightAware
07:56PM 59.8480 49.4610 273° West 477 549 36,000  Level FlightAware
07:57PM 59.8530 49.2700 273° West 477 549 36,000  Level FlightAware
07:57PM 59.8560 49.1320 273° West 477 549 36,000  Level FlightAware
07:58PM 59.8610 48.9530 273° West 477 549 36,000  Level FlightAware
07:59PM 59.8670 48.7260 273° West 477 549 36,000  Level FlightAware
08:00PM 59.8720 48.5240 273° West 477 549 36,000  Level FlightAware
08:01PM 59.8760 48.3670 273° West 477 549 36,000  Level FlightAware
08:01PM 59.8800 48.2330 273° West 477 549 36,000  Level FlightAware
08:02PM 59.8850 48.0500 273° West 477 549 36,000  Level FlightAware
08:03PM 59.8880 47.9160 273° West 477 549 36,000  Level FlightAware
08:03PM 59.8930 47.7360 273° West 477 549 36,000  Level FlightAware
08:06PM 59.8625 47.2208 263° West  Level Estimated
08:07PM 59.8476 46.9815 263° West  Level Estimated
08:08PM 59.8323 46.7424 263° West  Level Estimated
08:09PM 59.8165 46.5036 263° West  Level Estimated
08:10PM 59.8004 46.2650 262° West  Level Estimated
08:11PM 59.7837 46.0266 262° West  Level Estimated
08:12PM 59.7667 45.7884 262° West  Level Estimated
08:13PM 59.7492 45.5505 262° West  Level Estimated
08:14PM 59.7313 45.3129 262° West  Level Estimated
08:15PM 59.7130 45.0755 261° West  Level Estimated
08:16PM 59.6942 44.8383 261° West  Level Estimated
08:17PM 59.6751 44.6015 261° West  Level Estimated
08:18PM 59.6555 44.3649 261° West  Level Estimated
08:19PM 59.6354 44.1286 261° West  Level Estimated
08:20PM 59.6150 43.8926 260° West  Level Estimated
08:21PM 59.5941 43.6568 260° West  Level Estimated
08:22PM 59.5728 43.4214 260° West  Level Estimated
08:23PM 59.5510 43.1862 260° West  Level Estimated
08:24PM 59.5289 42.9514 260° West  Level Estimated
08:25PM 59.5063 42.7169 259° West  Level Estimated
08:26PM 59.4833 42.4827 259° West  Level Estimated
08:27PM 59.4599 42.2488 259° West  Level Estimated
08:28PM 59.4361 42.0152 259° West  Level Estimated
08:29PM 59.4119 41.7820 259° West  Level Estimated
08:30PM 59.3872 41.5491 258° West  Level Estimated
08:31PM 59.3621 41.3166 258° West  Level Estimated
08:32PM 59.3367 41.0844 258° West  Level Estimated
08:33PM 59.3107 40.8525 258° West  Level Estimated
08:34PM 59.2844 40.6210 258° West  Level Estimated
08:35PM 59.2577 40.3899 257° West  Level Estimated
08:36PM 59.2306 40.1591 257° West  Level Estimated
08:37PM 59.2031 39.9287 257° West  Level Estimated
08:38PM 59.1751 39.6987 257° West  Level Estimated
08:39PM 59.1468 39.4690 257° West  Level Estimated
08:40PM 59.1180 39.2398 256° West  Level Estimated
08:41PM 59.0889 39.0109 256° West  Level Estimated
08:42PM 59.0593 38.7824 256° West  Level Estimated
08:43PM 59.0294 38.5543 256° West  Level Estimated
08:44PM 58.9990 38.3266 256° West  Level Estimated
08:45PM 58.9682 38.0993 255° West  Level Estimated
08:46PM 58.9371 37.8725 255° West  Level Estimated
08:47PM 58.9055 37.6460 255° West  Level Estimated
08:48PM 58.8736 37.4199 255° West  Level Estimated
08:49PM 58.8412 37.1943 255° West  Level Estimated
08:50PM 58.8085 36.9691 254° West  Level Estimated
08:51PM 58.7754 36.7443 254° West  Level Estimated
08:52PM 58.7419 36.5200 254° West  Level Estimated
08:53PM 58.7080 36.2960 254° West  Level Estimated
08:54PM 58.6737 36.0726 254° West  Level Estimated
08:55PM 58.6390 35.8495 253° West  Level Estimated
08:56PM 58.6040 35.6269 253° West  Level Estimated
08:57PM 58.5685 35.4048 253° West  Level Estimated
08:58PM 58.5327 35.1831 253° West  Level Estimated
08:59PM 58.4965 34.9619 253° West  Level Estimated
09:00PM 58.4599 34.7411 253° West  Level Estimated
09:01PM 58.4229 34.5208 252° West  Level Estimated
09:01PM 59.8280 32.5520 252° West 455 524 36,000  Level FlightAware
09:02PM 58.3856 34.3009 252° West  Level Estimated
09:02PM 59.8190 32.3820 264° West 455 524 36,000  Level FlightAware
09:02PM 59.8100 32.2440 263° West 456 525 36,100 360 Climbing FlightAware
09:03PM 59.7970 32.0660 262° West 460 529 36,500 660 Climbing FlightAware
09:04PM 59.7850 31.8890 262° West 459 528 37,100 960 Climbing FlightAware
09:04PM 59.7730 31.7250 262° West 451 519 37,800 600 Climbing FlightAware
09:05PM 59.7600 31.5460 262° West 455 524 38,000 120 Climbing FlightAware
09:06PM 59.7480 31.3860 262° West 458 527 38,000  Level FlightAware
09:07PM 59.7420 31.3060 262° West 457 526 38,000  Level FlightAware
09:07PM 59.7310 31.1690 261° West 455 524 38,000  Level FlightAware
09:08PM 59.7150 30.9600 261° West 461 531 38,000  Level FlightAware
09:09PM 59.6950 30.7170 261° West 466 536 38,000  Level FlightAware
09:09PM 59.6830 30.5660 261° West 462 532 38,000  Level FlightAware
09:10PM 59.6680 30.3840 261° West 456 525 38,000  Level FlightAware
09:10PM 59.6560 30.2370 261° West 452 520 38,000  Level FlightAware
09:11PM 59.6420 30.0760 260° West 452 520 38,000  Level FlightAware
09:12PM 59.6280 29.9110 261° West 452 520 38,000  Level FlightAware
09:13PM 59.6120 29.7280 260° West 453 521 38,000  Level FlightAware
09:13PM 59.5980 29.5800 259° West 453 521 38,000  Level FlightAware
09:14PM 59.5810 29.3870 260° West 452 520 38,000  Level FlightAware
09:15PM 59.5660 29.2240 260° West 449 517 38,000  Level FlightAware
09:15PM 59.5490 29.0410 260° West 449 517 38,000  Level FlightAware
09:16PM 59.5360 28.9030 260° West 451 519 38,000  Level FlightAware
09:17PM 59.5200 28.7430 259° West 456 525 38,000  Level FlightAware
09:17PM 59.5040 28.5750 259° West 455 524 38,000  Level FlightAware
09:18PM 59.4850 28.3790 259° West 457 526 38,000  Level FlightAware
09:19PM 59.4680 28.2120 259° West 456 525 38,000  Level FlightAware
09:20PM 59.4440 28.0310 255° West 458 527 38,000  Level FlightAware
09:20PM 59.4160 27.8870 249° West 459 528 38,000  Level FlightAware
09:21PM 59.3910 27.7590 249° West 461 531 38,000  Level FlightAware
09:21PM 59.3560 27.5870 248° West 463 533 38,000  Level FlightAware
09:22PM 59.3250 27.4780 241° Southwest 464 534 38,000  Level FlightAware
09:23PM 59.2760 27.3420 235° Southwest 468 539 38,000  Level FlightAware
09:23PM 59.2290 27.2320 230° Southwest 470 541 38,000  Level FlightAware
09:24PM 59.1730 27.0990 231° Southwest 470 541 38,000  Level FlightAware
09:25PM 59.1090 26.9500 230° Southwest 472 543 38,000  Level FlightAware
09:25PM 59.0590 26.8360 230° Southwest 471 542 38,000  Level FlightAware
09:26PM 59.0050 26.7120 230° Southwest 471 542 38,000  Level FlightAware
09:27PM 58.9400 26.5620 230° Southwest 472 543 38,000  Level FlightAware
09:27PM 58.8990 26.4670 230° Southwest 472 543 38,000  Level FlightAware
09:28PM 58.8350 26.3240 229° Southwest 471 542 38,000  Level FlightAware
09:29PM 58.7780 26.1940 230° Southwest 472 543 38,000  Level FlightAware
09:29PM 58.7140 26.0510 229° Southwest 472 543 38,000  Level FlightAware
09:30PM 58.6570 25.9250 229° Southwest 471 542 38,000  Level FlightAware
09:31PM 58.6010 25.8000 229° Southwest 470 541 38,000  Level FlightAware
09:31PM 58.5370 25.6580 229° Southwest 470 541 38,000  Level FlightAware
09:32PM 58.4860 25.5480 228° Southwest 472 543 38,000  Level FlightAware
09:33PM 58.4290 25.4220 229° Southwest 470 541 38,000  Level FlightAware
09:33PM 58.3640 25.2820 229° Southwest 469 540 38,000  Level FlightAware
09:34PM 58.3070 25.1590 229° Southwest 465 535 38,000  Level FlightAware
09:35PM 58.2510 25.0390 228° Southwest 459 528 38,000  Level FlightAware
09:35PM 58.2090 24.9490 228° Southwest 458 527 38,000  Level FlightAware
09:36PM 58.1550 24.8350 228° Southwest 456 525 38,000  Level FlightAware
09:37PM 58.0900 24.6960 229° Southwest 454 522 38,000  Level FlightAware
09:37PM 58.0340 24.5790 228° Southwest 459 528 38,000  Level FlightAware
09:38PM 57.9690 24.4430 228° Southwest 460 529 38,000  Level FlightAware
09:39PM 57.9290 24.3600 228° Southwest 460 529 38,000  Level FlightAware
09:39PM 57.8830 24.2560 230° Southwest 456 525 38,000  Level FlightAware
09:40PM 57.8360 24.1410 233° Southwest 458 527 38,000  Level FlightAware
09:40PM 57.7850 24.0150 233° Southwest 458 527 38,000  Level FlightAware
09:41PM 57.7340 23.8910 232° Southwest 455 524 38,000  Level FlightAware
09:42PM 57.6770 23.7520 233° Southwest 459 528 38,000  Level FlightAware
09:42PM 57.6230 23.6210 232° Southwest 461 531 38,000  Level FlightAware
09:43PM 57.5710 23.4950 232° Southwest 459 528 38,000  Level FlightAware
09:44PM 57.5060 23.3400 232° Southwest 457 526 38,000  Level FlightAware
09:45PM 57.4550 23.2190 232° Southwest 454 522 38,000  Level FlightAware
09:45PM 57.3970 23.0800 232° Southwest 456 525 38,000  Level FlightAware
09:46PM 57.3540 22.9800 231° Southwest 456 525 38,000  Level FlightAware
09:47PM 57.2990 22.8500 232° Southwest 457 526 38,000  Level FlightAware
09:47PM 57.2410 22.7150 232° Southwest 460 529 38,000  Level FlightAware
09:48PM 57.1880 22.5930 231° Southwest 461 531 38,000  Level FlightAware
09:49PM 57.1260 22.4510 231° Southwest 463 533 38,000  Level FlightAware
09:49PM 57.0740 22.3290 232° Southwest 460 529 38,000  Level FlightAware
09:50PM 57.0410 22.2560 230° Southwest 460 529 38,000  Level FlightAware
09:51PM 56.9800 22.1170 231° Southwest 464 534 38,000  Level FlightAware
09:51PM 56.9260 21.9970 231° Southwest 466 536 38,000  Level FlightAware
09:52PM 56.8670 21.8640 231° Southwest 468 539 38,000  Level FlightAware
09:53PM 56.8100 21.7360 231° Southwest 464 534 38,000  Level FlightAware
09:53PM 56.7690 21.6450 231° Southwest 463 533 38,000  Level FlightAware
09:54PM 56.7150 21.5260 230° Southwest 461 531 38,000  Level FlightAware
09:55PM 56.6620 21.4090 231° Southwest 461 531 38,000  Level FlightAware
09:55PM 56.6170 21.3110 230° Southwest 463 533 38,000  Level FlightAware
09:56PM 56.5520 21.1700 230° Southwest 461 531 38,000  Level FlightAware
09:57PM 56.4960 21.0380 232° Southwest 454 522 38,000  Level FlightAware
09:57PM 56.4560 20.9280 237° Southwest 454 522 38,000  Level FlightAware
09:58PM 56.4010 20.7750 237° Southwest 452 520 38,000  Level FlightAware
09:59PM 56.3530 20.6440 237° Southwest 453 521 38,000  Level FlightAware
09:59PM 56.3030 20.5060 237° Southwest 453 521 38,000  Level FlightAware
10:02PM 56.1544 20.1436 234° Southwest  Level Estimated
10:02PM 56.1550 20.1060 234° Southwest 451 519 38,000  Level FlightAware
10:02PM 56.1240 20.0160 238° Southwest 450 518 38,000  Level FlightAware
10:03PM 56.0610 19.8270 239° Southwest 450 518 38,000  Level FlightAware
10:04PM 56.0180 19.7000 239° Southwest 450 518 38,000  Level FlightAware
10:04PM 55.9880 19.6120 239° Southwest 450 518 38,000  Level FlightAware
10:05PM 55.9450 19.4840 239° Southwest 450 518 38,000  Level FlightAware
10:05PM 55.9030 19.3630 238° Southwest 448 516 38,000  Level FlightAware
10:06PM 55.8610 19.2400 239° Southwest 448 516 38,000  Level FlightAware
10:07PM 55.8080 19.1210 232° Southwest 455 524 38,000  Level FlightAware
10:08PM 55.7410 19.0130 222° Southwest 462 532 38,000  Level FlightAware
10:08PM 55.6620 18.9170 214° Southwest 462 532 38,000  Level FlightAware
10:09PM 55.5900 18.8320 214° Southwest 461 531 38,000  Level FlightAware
10:10PM 55.5130 18.7410 214° Southwest 463 533 38,000  Level FlightAware
10:10PM 55.4510 18.6690 213° Southwest 463 533 38,000  Level FlightAware
10:11PM 55.3830 18.5910 213° Southwest 464 534 38,000  Level FlightAware
10:12PM 55.2990 18.4950 213° Southwest 460 529 38,000  Level FlightAware
10:12PM 55.2400 18.4220 215° Southwest 454 522 38,000  Level FlightAware
10:13PM 55.1880 18.3180 229° Southwest 448 516 38,000  Level FlightAware
10:14PM 55.1310 18.1950 231° Southwest 451 519 38,000  Level FlightAware
10:14PM 55.0760 18.0750 231° Southwest 451 519 38,000  Level FlightAware
10:15PM 55.0180 17.9490 231° Southwest 452 520 38,000  Level FlightAware
10:16PM 54.9810 17.8700 231° Southwest 450 518 38,000  Level FlightAware
10:16PM 54.9320 17.7640 231° Southwest 450 518 38,000  Level FlightAware
10:17PM 54.8530 17.5950 231° Southwest 449 517 38,000  Level FlightAware
10:18PM 54.7960 17.4710 231° Southwest 451 519 38,000  Level FlightAware
10:19PM 54.7350 17.3420 231° Southwest 450 518 38,000  Level FlightAware
10:19PM 54.6890 17.2430 231° Southwest 450 518 38,000  Level FlightAware
10:20PM 54.6370 17.1310 231° Southwest 450 518 38,000  Level FlightAware
10:21PM 54.5790 17.0090 231° Southwest 446 513 38,000  Level FlightAware
10:21PM 54.5270 16.9000 231° Southwest 439 505 38,000  Level FlightAware
10:22PM 54.4700 16.7810 231° Southwest 437 503 38,000  Level FlightAware
10:23PM 54.4190 16.6740 231° Southwest 439 505 38,000  Level FlightAware
10:23PM 54.3620 16.5550 231° Southwest 439 505 38,000  Level FlightAware
10:24PM 54.3140 16.4560 230° Southwest 435 501 38,000  Level FlightAware
10:25PM 54.2550 16.3340 230° Southwest 433 498 38,000  Level FlightAware
10:26PM 54.2040 16.2290 230° Southwest 434 499 38,000  Level FlightAware
10:26PM 54.1470 16.1120 230° Southwest 435 501 38,000  Level FlightAware
10:27PM 54.0950 16.0090 229° Southwest 437 503 38,000  Level FlightAware
10:28PM 54.0400 15.8960 230° Southwest 435 501 38,000  Level FlightAware
10:28PM 53.9860 15.7870 230° Southwest 434 499 38,000  Level FlightAware
10:29PM 53.9340 15.6830 230° Southwest 430 495 38,000  Level FlightAware
10:30PM 53.8750 15.5650 230° Southwest 424 488 38,000  Level FlightAware
10:30PM 53.8420 15.5000 229° Southwest 421 484 38,000  Level FlightAware
10:31PM 53.7890 15.3950 230° Southwest 422 486 38,000  Level FlightAware
10:32PM 53.7340 15.2860 230° Southwest 422 486 38,000  Level FlightAware
10:32PM 53.6820 15.1850 229° Southwest 424 488 38,000  Level FlightAware
10:33PM 53.6310 15.0850 229° Southwest 426 490 38,000  Level FlightAware
10:34PM 53.5730 14.9730 229° Southwest 423 487 38,000  Level FlightAware
10:34PM 53.5270 14.8830 229° Southwest 423 487 38,000  Level FlightAware
10:35PM 53.4690 14.7690 230° Southwest 421 484 38,000  Level FlightAware
10:36PM 53.4160 14.6690 228° Southwest 420 483 38,000  Level FlightAware
10:37PM 53.3590 14.5590 229° Southwest 420 483 38,000  Level FlightAware
10:37PM 53.3080 14.4620 229° Southwest 423 487 38,000  Level FlightAware
10:38PM 53.2570 14.3660 228° Southwest 423 487 38,000  Level FlightAware
10:38PM 53.2060 14.2680 229° Southwest 423 487 38,000  Level FlightAware
10:39PM 53.1540 14.1700 229° Southwest 425 489 38,000  Level FlightAware
10:40PM 53.1070 14.0820 228° Southwest 426 490 38,000  Level FlightAware
10:40PM 53.0520 13.9780 229° Southwest 427 491 38,000  Level FlightAware
10:41PM 53.0000 13.8810 228° Southwest 428 493 38,000  Level FlightAware
10:42PM 52.9470 13.7830 228° Southwest 428 493 38,000  Level FlightAware
10:43PM 52.8880 13.6740 228° Southwest 429 494 38,000  Level FlightAware
10:43PM 52.8300 13.5680 228° Southwest 429 494 38,000  Level FlightAware
10:44PM 52.7790 13.4730 228° Southwest 429 494 38,000  Level FlightAware
10:45PM 52.7190 13.3640 228° Southwest 429 494 38,000  Level FlightAware
10:45PM 52.6660 13.2690 227° Southwest 429 494 38,000  Level FlightAware
10:46PM 52.6290 13.2010 228° Southwest 429 494 38,000  Level FlightAware
10:47PM 52.5710 13.0960 228° Southwest 428 493 38,000  Level FlightAware
10:47PM 52.5170 13.0000 227° Southwest 425 489 38,000  Level FlightAware
10:48PM 52.4570 12.8910 228° Southwest 424 488 38,000  Level FlightAware
10:49PM 52.4030 12.7960 227° Southwest 426 490 38,000  Level FlightAware
10:49PM 52.3500 12.7020 227° Southwest 426 490 38,000  Level FlightAware
10:50PM 52.2910 12.5970 227° Southwest 425 489 38,000  Level FlightAware
10:51PM 52.2330 12.4950 227° Southwest 426 490 38,000  Level FlightAware
10:51PM 52.1790 12.4000 227° Southwest 424 488 38,000  Level FlightAware
10:52PM 52.1210 12.2980 227° Southwest 423 487 38,000 -120 Level FlightAware
10:53PM 52.0670 12.2050 227° Southwest 424 488 37,900 -900 Descending FlightAware
10:54PM 52.0070 12.1010 227° Southwest 430 495 36,800 -1,440 Descending FlightAware
10:54PM 51.9540 12.0080 227° Southwest 437 503 35,900 -1,440 Descending FlightAware
10:55PM 51.9160 11.9430 227° Southwest 439 505 35,200 -1,500 Descending FlightAware
10:55PM 51.8590 11.8450 227° Southwest 440 506 34,200 -1,380 Descending FlightAware
10:56PM 51.7980 11.7410 227° Southwest 436 502 33,300 -1,320 Descending FlightAware
10:57PM 51.7460 11.6540 226° Southwest 437 503 32,400 -1,500 Descending FlightAware
10:57PM 51.6840 11.5480 227° Southwest 440 506 31,300 -1,500 Descending FlightAware
10:58PM 51.6270 11.4520 226° Southwest 442 509 30,300 -1,740 Descending FlightAware
10:59PM 51.5690 11.3540 226° Southwest 438 504 29,000 -1,980 Descending FlightAware
10:59PM 51.5150 11.2640 226° Southwest 431 496 27,800 -1,980 Descending FlightAware
11:00PM 51.4550 11.1640 226° Southwest 428 493 26,300 -2,040 Descending FlightAware
11:01PM 51.4010 11.0730 226° Southwest 422 486 25,000 -2,040 Descending FlightAware
11:02PM 51.3420 10.9760 226° Southwest 422 486 23,500 -2,040 Descending FlightAware
11:02PM 51.2880 10.8870 226° Southwest 413 475 22,200 -1,080 Descending FlightAware
11:03PM 51.2290 10.7890 226° Southwest 407 468 22,000 -180 Descending FlightAware
11:04PM 51.1770 10.7040 226° Southwest 406 467 22,000 -420 Level FlightAware
11:04PM 51.1230 10.6150 226° Southwest 397 457 21,500 -1,080 Descending FlightAware
11:05PM 51.0790 10.5450 225° Southwest 386 444 20,700 -1,500 Descending FlightAware
11:06PM 51.0350 10.4720 226° Southwest 379 436 19,400 -1,560 Descending FlightAware
11:06PM 50.9700 10.3680 225° Southwest 376 433 18,400 -1,500 Descending FlightAware
11:07PM 50.9160 10.2800 226° Southwest 372 428 17,300 -1,500 Descending FlightAware
11:08PM 50.8660 10.2000 225° Southwest 366 421 16,300 -1,560 Descending FlightAware
11:08PM 50.8260 10.1360 225° Southwest 365 420 15,400 -1,500 Descending FlightAware
11:09PM 50.7720 10.0510 225° Southwest 360 414 14,300 -1,500 Descending FlightAware
11:10PM 50.7360 9.9930 226° Southwest 356 410 13,500 -1,560 Descending FlightAware
11:11PM 50.6510 9.8590 225° Southwest 347 399 11,600 -1,500 Descending FlightAware
11:12PM 50.6120 9.7970 225° Southwest 345 397 10,800 -1,260 Descending FlightAware
11:12PM 50.5610 9.7170 225° Southwest 339 390 10,000 -720 Descending FlightAware
11:13PM 50.5350 9.6760 225° Southwest 339 390 10,000  Level FlightAware
11:13PM 50.4860 9.5970 226° Southwest 338 389 10,000  Level FlightAware
11:14PM 50.4640 9.5580 228° Southwest 338 389 10,000  Level FlightAware
11:15PM 50.4020 9.4060 237° Southwest 338 389 10,000  Level FlightAware
11:16PM 50.3700 9.3340 235° Southwest 337 388 10,000  Level FlightAware
11:16PM 50.3280 9.2390 235° Southwest 337 388 10,000  Level FlightAware
11:17PM 50.3060 9.1910 234° Southwest 337 388 10,000  Level FlightAware
11:17PM 50.2780 9.1270 236° Southwest 337 388 10,000  Level FlightAware
11:18PM 50.2540 9.0380 247° West 336 387 10,000  Level FlightAware
11:19PM 50.2300 8.9380 249° West 331 381 10,000  Level FlightAware
11:19PM 50.2110 8.8540 251° West 290 334 10,000  Level FlightAware
11:20PM 50.1980 8.7990 250° West 289 333 10,000  Level FlightAware
11:20PM 50.1840 8.7420 249° West 290 334 10,000  Level FlightAware
11:21PM 50.1720 8.6900 250° West 289 333 10,000  Level FlightAware
11:22PM 50.1510 8.6020 250° West 289 333 10,000  Level FlightAware
11:22PM 50.1380 8.5480 249° West 268 308 10,000  Level FlightAware
11:23PM 50.1210 8.4770 250° West 254 292 10,000 -180 Level FlightAware
11:23PM 50.1100 8.4330 249° West 252 290 9,800 -780 Descending FlightAware
11:24PM 50.0990 8.3860 250° West 250 288 9,300 -1,200 Descending FlightAware
11:24PM 50.0870 8.3370 249° West 247 284 8,700 -1,320 Descending FlightAware
11:25PM 50.0760 8.2910 250° West 250 288 8,100 -1,080 Descending FlightAware
11:25PM 50.0650 8.2450 250° West 247 284 7,700 -900 Descending FlightAware
11:25PM 50.0600 8.2240 250° West 250 288 7,500 -960 Descending FlightAware
11:26PM 50.0470 8.1700 249° West 250 288 7,000 -540 Descending FlightAware
11:26PM 50.0360 8.1230 250° West 249 287 7,000 -600 Level FlightAware
11:27PM 50.0260 8.0830 249° West 247 284 6,500 -1,320 Descending FlightAware
11:27PM 50.0120 8.0390 244° Southwest 247 284 5,900 -1,380 Descending FlightAware
11:27PM 49.9960 8.0250 209° Southwest 245 282 5,500 -1,380 Descending FlightAware
11:28PM 49.9660 8.0320 171° South 238 274 4,900 -1,380 Descending FlightAware
11:28PM 49.9510 8.0470 147° Southeast 237 273 4,500 -1,320 Descending FlightAware
11:28PM 49.9450 8.0650 117° Southeast 235 270 4,300 -900 Descending FlightAware
11:29PM 49.9430 8.0900 97° East 231 266 4,100 -720 Descending FlightAware
11:29PM 49.9490 8.1350 78° East 215 247 3,800 -360 Descending FlightAware
11:29PM 49.9590 8.1740 68° East 202 232 3,800  Level FlightAware
11:30PM 49.9680 8.2120 70° East 189 217 3,800 -240 Level FlightAware
11:30PM 49.9760 8.2430 68° East 187 215 3,600 -720 Descending FlightAware
11:31PM 49.9840 8.2780 70° East 187 215 3,200 -1,080 Descending FlightAware
11:31PM 49.9910 8.3060 69° East 183 211 2,700 -1,140 Descending FlightAware
11:32PM 49.9990 8.3410 70° East 183 211 2,200 -1,080 Descending FlightAware
11:32PM 50.0060 8.3700 69° East 179 206 1,800 -960 Descending FlightAware
11:32PM 50.0110 8.3890 68° East 171 197 1,600 -480 Descending FlightAware
11:33PM 50.0240 8.4440 70° East 168 193 1,200 -420 Descending FlightAware
11:36PM 50.0264 8.5431 88° East  Level Estimated
11:37PM 50.0264 8.5431 73° East  Level Estimated
11:38PM 50.0264 8.5431 73° East  Level Estimated
11:39PM 50.0264 8.5431 73° East  Level Estimated
11:40PM 50.0264 8.5431 73° East  Level Estimated
11:41PM 50.0264 8.5431 73° East  Level Estimated
11:42PM 50.0264 8.5431 73° East  Level Estimated